sensor_id;sensor_type;location;lat;lon;timestamp;temperature;humidity
59855;DHT22;45732;52.850;6.896;2022-12-07T00:01:12;4.50;99.90
59855;DHT22;45732;52.850;6.896;2022-12-07T00:03:39;4.50;99.90
59855;DHT22;45732;52.850;6.896;2022-12-07T00:06:07;4.50;99.90
59855;DHT22;45732;52.850;6.896;2022-12-07T00:08:34;4.50;99.90
59855;DHT22;45732;52.850;6.896;2022-12-07T00:11:07;4.50;99.90
59855;DHT22;45732;52.850;6.896;2022-12-07T00:13:35;4.40;99.90
59855;DHT22;45732;52.850;6.896;2022-12-07T00:16:07;4.40;99.90
59855;DHT22;45732;52.850;6.896;2022-12-07T00:18:33;4.40;99.90
59855;DHT22;45732;52.850;6.896;2022-12-07T00:21:10;4.40;99.90
59855;DHT22;45732;52.850;6.896;2022-12-07T00:23:36;4.30;99.90
59855;DHT22;45732;52.850;6.896;2022-12-07T00:26:14;4.30;99.90
59855;DHT22;45732;52.850;6.896;2022-12-07T00:28:40;4.30;99.90
59855;DHT22;45732;52.850;6.896;2022-12-07T00:31:09;4.30;99.90
59855;DHT22;45732;52.850;6.896;2022-12-07T00:33:35;4.30;99.90
59855;DHT22;45732;52.850;6.896;2022-12-07T00:36:03;4.30;99.90
59855;DHT22;45732;52.850;6.896;2022-12-07T00:38:32;4.30;99.90
59855;DHT22;45732;52.850;6.896;2022-12-07T00:40:59;4.30;99.90
59855;DHT22;45732;52.850;6.896;2022-12-07T00:43:26;4.30;99.90
59855;DHT22;45732;52.850;6.896;2022-12-07T00:45:52;4.30;99.90
59855;DHT22;45732;52.850;6.896;2022-12-07T00:48:18;4.30;99.90
59855;DHT22;45732;52.850;6.896;2022-12-07T00:50:43;4.40;99.90
59855;DHT22;45732;52.850;6.896;2022-12-07T00:53:09;4.30;99.90
59855;DHT22;45732;52.850;6.896;2022-12-07T00:55:36;4.30;99.90
59855;DHT22;45732;52.850;6.896;2022-12-07T00:58:02;4.30;99.90
59855;DHT22;45732;52.850;6.896;2022-12-07T01:00:28;4.30;99.90
59855;DHT22;45732;52.850;6.896;2022-12-07T01:02:54;4.30;99.90
59855;DHT22;45732;52.850;6.896;2022-12-07T01:05:20;4.30;99.90
59855;DHT22;45732;52.850;6.896;2022-12-07T01:07:45;4.20;99.90
59855;DHT22;45732;52.850;6.896;2022-12-07T01:10:13;4.20;99.90
59855;DHT22;45732;52.850;6.896;2022-12-07T01:12:38;4.20;99.90
59855;DHT22;45732;52.850;6.896;2022-12-07T01:15:05;4.20;99.90
59855;DHT22;45732;52.850;6.896;2022-12-07T01:17:30;4.10;99.90
59855;DHT22;45732;52.850;6.896;2022-12-07T01:19:56;4.10;99.90
59855;DHT22;45732;52.850;6.896;2022-12-07T01:22:22;4.10;99.90
59855;DHT22;45732;52.850;6.896;2022-12-07T01:24:48;4.00;99.90
59855;DHT22;45732;52.850;6.896;2022-12-07T01:27:14;4.00;99.90
59855;DHT22;45732;52.850;6.896;2022-12-07T01:29:40;4.10;99.90
59855;DHT22;45732;52.850;6.896;2022-12-07T01:32:05;4.10;99.90
59855;DHT22;45732;52.850;6.896;2022-12-07T01:34:31;4.00;99.90
59855;DHT22;45732;52.850;6.896;2022-12-07T01:36:56;4.00;99.90
59855;DHT22;45732;52.850;6.896;2022-12-07T01:39:23;4.00;99.90
59855;DHT22;45732;52.850;6.896;2022-12-07T01:41:49;4.00;99.90
59855;DHT22;45732;52.850;6.896;2022-12-07T01:44:30;4.00;99.90
59855;DHT22;45732;52.850;6.896;2022-12-07T01:46:58;4.00;99.90
59855;DHT22;45732;52.850;6.896;2022-12-07T01:54:43;4.00;99.90
59855;DHT22;45732;52.850;6.896;2022-12-07T01:57:09;4.00;99.90
59855;DHT22;45732;52.850;6.896;2022-12-07T01:59:36;3.90;99.90
59855;DHT22;45732;52.850;6.896;2022-12-07T02:02:04;3.90;99.90
59855;DHT22;45732;52.850;6.896;2022-12-07T02:04:33;3.90;99.90
59855;DHT22;45732;52.850;6.896;2022-12-07T02:07:00;3.90;99.90
59855;DHT22;45732;52.850;6.896;2022-12-07T02:09:26;4.00;99.90
59855;DHT22;45732;52.850;6.896;2022-12-07T02:11:52;3.90;99.90
59855;DHT22;45732;52.850;6.896;2022-12-07T02:14:19;4.00;99.90
59855;DHT22;45732;52.850;6.896;2022-12-07T02:30:47;4.00;99.90
59855;DHT22;45732;52.850;6.896;2022-12-07T02:33:15;4.00;99.90
59855;DHT22;45732;52.850;6.896;2022-12-07T02:35:59;4.00;99.90
59855;DHT22;45732;52.850;6.896;2022-12-07T02:38:38;4.10;99.90
59855;DHT22;45732;52.850;6.896;2022-12-07T02:41:13;4.10;99.90
59855;DHT22;45732;52.850;6.896;2022-12-07T02:43:46;4.10;99.90
59855;DHT22;45732;52.850;6.896;2022-12-07T02:46:23;4.10;99.90
59855;DHT22;45732;52.850;6.896;2022-12-07T02:48:52;4.10;99.90
59855;DHT22;45732;52.850;6.896;2022-12-07T02:51:19;4.10;99.90
59855;DHT22;45732;52.850;6.896;2022-12-07T02:53:45;4.20;99.90
59855;DHT22;45732;52.850;6.896;2022-12-07T03:07:34;4.20;99.90
59855;DHT22;45732;52.850;6.896;2022-12-07T03:13:11;4.10;99.90
59855;DHT22;45732;52.850;6.896;2022-12-07T03:15:49;4.00;99.90
59855;DHT22;45732;52.850;6.896;2022-12-07T03:18:20;4.10;99.90
59855;DHT22;45732;52.850;6.896;2022-12-07T03:20:49;4.00;99.90
59855;DHT22;45732;52.850;6.896;2022-12-07T03:23:18;4.00;99.90
59855;DHT22;45732;52.850;6.896;2022-12-07T03:25:48;4.00;99.90
59855;DHT22;45732;52.850;6.896;2022-12-07T03:28:17;4.00;99.90
59855;DHT22;45732;52.850;6.896;2022-12-07T03:30:59;4.00;99.90
59855;DHT22;45732;52.850;6.896;2022-12-07T03:33:36;4.10;99.90
59855;DHT22;45732;52.850;6.896;2022-12-07T03:36:10;4.20;99.90
59855;DHT22;45732;52.850;6.896;2022-12-07T03:38:45;4.20;99.90
59855;DHT22;45732;52.850;6.896;2022-12-07T03:41:22;4.20;99.90
59855;DHT22;45732;52.850;6.896;2022-12-07T03:43:49;4.30;99.90
59855;DHT22;45732;52.850;6.896;2022-12-07T03:46:32;4.20;99.90
59855;DHT22;45732;52.850;6.896;2022-12-07T03:49:23;4.30;99.90
59855;DHT22;45732;52.850;6.896;2022-12-07T03:57:21;4.20;99.90
59855;DHT22;45732;52.850;6.896;2022-12-07T03:59:48;4.20;99.90
59855;DHT22;45732;52.850;6.896;2022-12-07T04:02:14;4.20;99.90
59855;DHT22;45732;52.850;6.896;2022-12-07T04:04:41;4.20;99.90
59855;DHT22;45732;52.850;6.896;2022-12-07T04:07:08;4.10;99.90
59855;DHT22;45732;52.850;6.896;2022-12-07T04:09:34;4.10;99.90
59855;DHT22;45732;52.850;6.896;2022-12-07T04:11:59;4.10;99.90
59855;DHT22;45732;52.850;6.896;2022-12-07T04:14:25;4.10;99.90
59855;DHT22;45732;52.850;6.896;2022-12-07T04:16:54;4.10;99.90
59855;DHT22;45732;52.850;6.896;2022-12-07T04:19:27;4.10;99.90
59855;DHT22;45732;52.850;6.896;2022-12-07T04:21:53;4.10;99.90
59855;DHT22;45732;52.850;6.896;2022-12-07T04:24:20;4.10;99.90
59855;DHT22;45732;52.850;6.896;2022-12-07T04:26:46;4.10;99.90
59855;DHT22;45732;52.850;6.896;2022-12-07T04:29:12;4.10;99.90
59855;DHT22;45732;52.850;6.896;2022-12-07T04:31:39;4.10;99.90
59855;DHT22;45732;52.850;6.896;2022-12-07T04:34:05;4.10;99.90
59855;DHT22;45732;52.850;6.896;2022-12-07T04:36:31;4.00;99.90
59855;DHT22;45732;52.850;6.896;2022-12-07T04:38:57;4.00;99.90
59855;DHT22;45732;52.850;6.896;2022-12-07T04:41:24;4.00;99.90
59855;DHT22;45732;52.850;6.896;2022-12-07T04:44:03;4.00;99.90
59855;DHT22;45732;52.850;6.896;2022-12-07T04:46:31;4.00;99.90
59855;DHT22;45732;52.850;6.896;2022-12-07T04:48:57;4.00;99.90
59855;DHT22;45732;52.850;6.896;2022-12-07T04:51:25;4.00;99.90
59855;DHT22;45732;52.850;6.896;2022-12-07T04:53:51;3.90;99.90
59855;DHT22;45732;52.850;6.896;2022-12-07T04:56:17;3.90;99.90
59855;DHT22;45732;52.850;6.896;2022-12-07T04:58:45;3.80;99.90
59855;DHT22;45732;52.850;6.896;2022-12-07T05:01:12;3.70;99.90
59855;DHT22;45732;52.850;6.896;2022-12-07T05:03:38;3.70;99.90
59855;DHT22;45732;52.850;6.896;2022-12-07T05:06:04;3.70;99.90
59855;DHT22;45732;52.850;6.896;2022-12-07T05:08:31;3.70;99.90
59855;DHT22;45732;52.850;6.896;2022-12-07T05:10:57;3.60;99.90
59855;DHT22;45732;52.850;6.896;2022-12-07T05:13:22;3.60;99.90
59855;DHT22;45732;52.850;6.896;2022-12-07T05:15:48;3.60;99.90
59855;DHT22;45732;52.850;6.896;2022-12-07T05:18:14;3.50;99.90
59855;DHT22;45732;52.850;6.896;2022-12-07T05:20:41;3.50;99.90
59855;DHT22;45732;52.850;6.896;2022-12-07T05:23:07;3.40;99.90
59855;DHT22;45732;52.850;6.896;2022-12-07T05:25:32;3.40;99.90
59855;DHT22;45732;52.850;6.896;2022-12-07T05:27:58;3.40;99.90
59855;DHT22;45732;52.850;6.896;2022-12-07T05:30:24;3.40;99.90
59855;DHT22;45732;52.850;6.896;2022-12-07T05:32:50;3.50;99.90
59855;DHT22;45732;52.850;6.896;2022-12-07T05:35:17;3.50;99.90
59855;DHT22;45732;52.850;6.896;2022-12-07T05:37:43;3.50;99.90
59855;DHT22;45732;52.850;6.896;2022-12-07T05:40:09;3.50;99.90
59855;DHT22;45732;52.850;6.896;2022-12-07T05:42:35;3.60;99.90
59855;DHT22;45732;52.850;6.896;2022-12-07T05:45:01;3.60;99.90
59855;DHT22;45732;52.850;6.896;2022-12-07T05:47:26;3.70;99.90
59855;DHT22;45732;52.850;6.896;2022-12-07T05:49:52;3.70;99.90
59855;DHT22;45732;52.850;6.896;2022-12-07T05:52:18;3.70;99.90
59855;DHT22;45732;52.850;6.896;2022-12-07T05:54:44;3.70;99.90
59855;DHT22;45732;52.850;6.896;2022-12-07T05:57:09;3.70;99.90
59855;DHT22;45732;52.850;6.896;2022-12-07T05:59:36;3.70;99.90
59855;DHT22;45732;52.850;6.896;2022-12-07T06:02:13;3.70;99.90
59855;DHT22;45732;52.850;6.896;2022-12-07T06:04:44;3.70;99.90
59855;DHT22;45732;52.850;6.896;2022-12-07T06:07:12;3.70;99.90
59855;DHT22;45732;52.850;6.896;2022-12-07T06:09:38;3.70;99.90
59855;DHT22;45732;52.850;6.896;2022-12-07T06:12:05;3.60;99.90
59855;DHT22;45732;52.850;6.896;2022-12-07T06:14:49;3.60;99.90
59855;DHT22;45732;52.850;6.896;2022-12-07T06:17:15;3.60;99.90
59855;DHT22;45732;52.850;6.896;2022-12-07T06:19:42;3.60;99.90
59855;DHT22;45732;52.850;6.896;2022-12-07T06:22:09;3.50;99.90
59855;DHT22;45732;52.850;6.896;2022-12-07T06:24:37;3.50;99.90
59855;DHT22;45732;52.850;6.896;2022-12-07T06:27:03;3.40;99.90
59855;DHT22;45732;52.850;6.896;2022-12-07T06:29:29;3.40;99.90
59855;DHT22;45732;52.850;6.896;2022-12-07T06:31:55;3.40;99.90
59855;DHT22;45732;52.850;6.896;2022-12-07T06:34:21;3.40;99.90
59855;DHT22;45732;52.850;6.896;2022-12-07T06:36:48;3.40;99.90
59855;DHT22;45732;52.850;6.896;2022-12-07T06:39:18;3.40;99.90
59855;DHT22;45732;52.850;6.896;2022-12-07T06:41:43;3.30;99.90
59855;DHT22;45732;52.850;6.896;2022-12-07T06:44:09;3.30;99.90
59855;DHT22;45732;52.850;6.896;2022-12-07T06:46:35;3.30;99.90
59855;DHT22;45732;52.850;6.896;2022-12-07T06:49:01;3.30;99.90
59855;DHT22;45732;52.850;6.896;2022-12-07T06:51:27;3.20;99.90
59855;DHT22;45732;52.850;6.896;2022-12-07T06:53:53;3.20;99.90
59855;DHT22;45732;52.850;6.896;2022-12-07T06:56:19;3.20;99.90
59855;DHT22;45732;52.850;6.896;2022-12-07T06:58:45;3.20;99.90
59855;DHT22;45732;52.850;6.896;2022-12-07T07:01:16;3.20;99.90
59855;DHT22;45732;52.850;6.896;2022-12-07T07:03:42;3.20;99.90
59855;DHT22;45732;52.850;6.896;2022-12-07T07:06:08;3.20;99.90
59855;DHT22;45732;52.850;6.896;2022-12-07T07:08:35;3.20;99.90
59855;DHT22;45732;52.850;6.896;2022-12-07T07:11:01;3.30;99.90
59855;DHT22;45732;52.850;6.896;2022-12-07T07:13:27;3.30;99.90
59855;DHT22;45732;52.850;6.896;2022-12-07T07:15:53;3.30;99.90
59855;DHT22;45732;52.850;6.896;2022-12-07T07:18:19;3.30;99.90
59855;DHT22;45732;52.850;6.896;2022-12-07T07:20:44;3.30;99.90
59855;DHT22;45732;52.850;6.896;2022-12-07T07:23:10;3.40;99.90
59855;DHT22;45732;52.850;6.896;2022-12-07T07:25:36;3.40;99.90
59855;DHT22;45732;52.850;6.896;2022-12-07T07:28:02;3.40;99.90
59855;DHT22;45732;52.850;6.896;2022-12-07T07:30:28;3.40;99.90
59855;DHT22;45732;52.850;6.896;2022-12-07T07:33:01;3.50;99.90
59855;DHT22;45732;52.850;6.896;2022-12-07T07:35:28;3.50;99.90
59855;DHT22;45732;52.850;6.896;2022-12-07T07:37:55;3.50;99.90
59855;DHT22;45732;52.850;6.896;2022-12-07T07:40:21;3.50;99.90
59855;DHT22;45732;52.850;6.896;2022-12-07T07:42:50;3.50;99.90
59855;DHT22;45732;52.850;6.896;2022-12-07T07:45:17;3.50;99.90
59855;DHT22;45732;52.850;6.896;2022-12-07T07:47:43;3.50;99.90
59855;DHT22;45732;52.850;6.896;2022-12-07T07:50:09;3.50;99.90
59855;DHT22;45732;52.850;6.896;2022-12-07T07:52:35;3.50;99.90
59855;DHT22;45732;52.850;6.896;2022-12-07T07:55:01;3.40;99.90
59855;DHT22;45732;52.850;6.896;2022-12-07T07:57:26;3.40;99.90
59855;DHT22;45732;52.850;6.896;2022-12-07T07:59:52;3.40;99.90
59855;DHT22;45732;52.850;6.896;2022-12-07T08:02:20;3.40;99.90
59855;DHT22;45732;52.850;6.896;2022-12-07T08:04:46;3.40;99.90
59855;DHT22;45732;52.850;6.896;2022-12-07T08:07:12;3.50;99.90
59855;DHT22;45732;52.850;6.896;2022-12-07T08:09:38;3.50;99.90
59855;DHT22;45732;52.850;6.896;2022-12-07T08:12:04;3.60;99.90
59855;DHT22;45732;52.850;6.896;2022-12-07T08:14:30;3.60;99.90
59855;DHT22;45732;52.850;6.896;2022-12-07T08:16:56;3.60;99.90
59855;DHT22;45732;52.850;6.896;2022-12-07T08:19:22;3.60;99.90
59855;DHT22;45732;52.850;6.896;2022-12-07T08:21:48;3.50;99.90
59855;DHT22;45732;52.850;6.896;2022-12-07T08:24:14;3.60;99.90
59855;DHT22;45732;52.850;6.896;2022-12-07T08:26:40;3.50;99.90
59855;DHT22;45732;52.850;6.896;2022-12-07T08:29:06;3.60;99.90
59855;DHT22;45732;52.850;6.896;2022-12-07T08:31:32;3.60;99.90
59855;DHT22;45732;52.850;6.896;2022-12-07T08:33:57;3.50;99.90
59855;DHT22;45732;52.850;6.896;2022-12-07T08:36:24;3.50;99.90
59855;DHT22;45732;52.850;6.896;2022-12-07T08:38:50;3.50;99.90
59855;DHT22;45732;52.850;6.896;2022-12-07T08:41:16;3.50;99.90
59855;DHT22;45732;52.850;6.896;2022-12-07T08:43:42;3.50;99.90
59855;DHT22;45732;52.850;6.896;2022-12-07T08:46:21;3.50;99.90
59855;DHT22;45732;52.850;6.896;2022-12-07T08:49:09;3.50;99.90
59855;DHT22;45732;52.850;6.896;2022-12-07T08:51:37;3.60;99.90
59855;DHT22;45732;52.850;6.896;2022-12-07T08:54:07;3.60;99.90
59855;DHT22;45732;52.850;6.896;2022-12-07T08:56:34;3.60;99.90
59855;DHT22;45732;52.850;6.896;2022-12-07T08:59:00;3.60;99.90
59855;DHT22;45732;52.850;6.896;2022-12-07T09:01:25;3.60;99.90
59855;DHT22;45732;52.850;6.896;2022-12-07T09:03:52;3.70;99.90
59855;DHT22;45732;52.850;6.896;2022-12-07T09:06:18;3.70;99.90
59855;DHT22;45732;52.850;6.896;2022-12-07T09:08:46;3.80;99.90
59855;DHT22;45732;52.850;6.896;2022-12-07T09:11:13;3.80;99.90
59855;DHT22;45732;52.850;6.896;2022-12-07T09:13:38;3.90;99.90
59855;DHT22;45732;52.850;6.896;2022-12-07T09:16:04;4.00;99.90
59855;DHT22;45732;52.850;6.896;2022-12-07T09:18:31;4.00;99.90
59855;DHT22;45732;52.850;6.896;2022-12-07T09:20:57;4.00;99.90
59855;DHT22;45732;52.850;6.896;2022-12-07T09:23:22;4.10;99.90
59855;DHT22;45732;52.850;6.896;2022-12-07T09:25:48;4.10;99.90
59855;DHT22;45732;52.850;6.896;2022-12-07T09:28:14;4.10;99.90
59855;DHT22;45732;52.850;6.896;2022-12-07T09:30:48;4.10;99.90
59855;DHT22;45732;52.850;6.896;2022-12-07T09:33:14;4.10;99.90
59855;DHT22;45732;52.850;6.896;2022-12-07T09:35:51;4.10;99.90
59855;DHT22;45732;52.850;6.896;2022-12-07T09:38:17;4.10;99.90
59855;DHT22;45732;52.850;6.896;2022-12-07T09:40:44;4.20;99.90
59855;DHT22;45732;52.850;6.896;2022-12-07T09:43:15;4.20;99.90
59855;DHT22;45732;52.850;6.896;2022-12-07T09:45:42;4.30;99.90
59855;DHT22;45732;52.850;6.896;2022-12-07T09:48:21;4.30;99.90
59855;DHT22;45732;52.850;6.896;2022-12-07T09:50:47;4.30;99.90
59855;DHT22;45732;52.850;6.896;2022-12-07T09:53:27;4.30;99.90
59855;DHT22;45732;52.850;6.896;2022-12-07T09:55:54;4.30;99.90
59855;DHT22;45732;52.850;6.896;2022-12-07T09:58:24;4.30;99.90
59855;DHT22;45732;52.850;6.896;2022-12-07T10:01:38;4.30;99.90
59855;DHT22;45732;52.850;6.896;2022-12-07T10:03:42;4.40;99.90
59855;DHT22;45732;52.850;6.896;2022-12-07T10:06:11;4.40;99.90
59855;DHT22;45732;52.850;6.896;2022-12-07T10:08:38;4.40;99.90
59855;DHT22;45732;52.850;6.896;2022-12-07T10:11:04;4.50;99.90
59855;DHT22;45732;52.850;6.896;2022-12-07T10:13:45;4.50;99.90
59855;DHT22;45732;52.850;6.896;2022-12-07T10:18:54;4.60;99.90
59855;DHT22;45732;52.850;6.896;2022-12-07T10:21:22;4.70;99.90
59855;DHT22;45732;52.850;6.896;2022-12-07T10:24:08;4.70;99.90
59855;DHT22;45732;52.850;6.896;2022-12-07T10:26:52;4.80;99.90
59855;DHT22;45732;52.850;6.896;2022-12-07T10:29:38;4.80;99.90
59855;DHT22;45732;52.850;6.896;2022-12-07T10:32:26;4.80;99.90
59855;DHT22;45732;52.850;6.896;2022-12-07T10:35:19;4.80;99.90
59855;DHT22;45732;52.850;6.896;2022-12-07T10:37:45;4.90;99.90
59855;DHT22;45732;52.850;6.896;2022-12-07T10:40:35;4.80;99.90
59855;DHT22;45732;52.850;6.896;2022-12-07T10:52:06;4.80;99.90
59855;DHT22;45732;52.850;6.896;2022-12-07T10:57:36;4.80;99.90
59855;DHT22;45732;52.850;6.896;2022-12-07T11:00:23;4.80;99.90
59855;DHT22;45732;52.850;6.896;2022-12-07T11:05:27;4.90;99.90
59855;DHT22;45732;52.850;6.896;2022-12-07T11:11:05;4.90;99.90
59855;DHT22;45732;52.850;6.896;2022-12-07T11:16:39;4.90;99.90
59855;DHT22;45732;52.850;6.896;2022-12-07T11:22:17;5.00;99.90
59855;DHT22;45732;52.850;6.896;2022-12-07T11:31:18;5.10;99.90
59855;DHT22;45732;52.850;6.896;2022-12-07T11:33:57;5.10;99.90
59855;DHT22;45732;52.850;6.896;2022-12-07T11:36:36;5.10;99.90
59855;DHT22;45732;52.850;6.896;2022-12-07T11:41:49;5.10;99.90
59855;DHT22;45732;52.850;6.896;2022-12-07T11:52:43;5.20;99.90
59855;DHT22;45732;52.850;6.896;2022-12-07T11:55:49;5.10;99.90
59855;DHT22;45732;52.850;6.896;2022-12-07T11:58:38;5.10;99.90
59855;DHT22;45732;52.850;6.896;2022-12-07T12:06:38;5.00;99.90
59855;DHT22;45732;52.850;6.896;2022-12-07T12:12:07;5.00;99.90
59855;DHT22;45732;52.850;6.896;2022-12-07T12:15:03;5.00;99.90
59855;DHT22;45732;52.850;6.896;2022-12-07T12:17:53;5.10;99.90
59855;DHT22;45732;52.850;6.896;2022-12-07T12:20:31;5.10;99.90
59855;DHT22;45732;52.850;6.896;2022-12-07T12:27:54;5.10;99.90
59855;DHT22;45732;52.850;6.896;2022-12-07T12:30:34;5.10;99.90
59855;DHT22;45732;52.850;6.896;2022-12-07T12:33:17;5.10;99.90
59855;DHT22;45732;52.850;6.896;2022-12-07T12:35:45;5.20;99.90
59855;DHT22;45732;52.850;6.896;2022-12-07T12:38:31;5.10;99.90
59855;DHT22;45732;52.850;6.896;2022-12-07T12:40:59;5.20;99.90
59855;DHT22;45732;52.850;6.896;2022-12-07T12:43:47;5.20;99.90
59855;DHT22;45732;52.850;6.896;2022-12-07T12:49:40;5.30;99.90
59855;DHT22;45732;52.850;6.896;2022-12-07T12:55:11;5.40;99.90
59855;DHT22;45732;52.850;6.896;2022-12-07T12:57:37;5.40;99.90
59855;DHT22;45732;52.850;6.896;2022-12-07T13:00:17;5.40;99.90
59855;DHT22;45732;52.850;6.896;2022-12-07T13:02:54;5.50;99.90
59855;DHT22;45732;52.850;6.896;2022-12-07T13:05:23;5.50;99.90
59855;DHT22;45732;52.850;6.896;2022-12-07T13:08:00;5.40;99.90
59855;DHT22;45732;52.850;6.896;2022-12-07T13:23:51;5.50;99.90
59855;DHT22;45732;52.850;6.896;2022-12-07T13:28:51;5.60;99.90
59855;DHT22;45732;52.850;6.896;2022-12-07T13:33:59;5.60;99.90
59855;DHT22;45732;52.850;6.896;2022-12-07T13:36:39;5.60;99.90
59855;DHT22;45732;52.850;6.896;2022-12-07T13:39:18;5.60;99.90
59855;DHT22;45732;52.850;6.896;2022-12-07T13:41:48;5.60;99.90
59855;DHT22;45732;52.850;6.896;2022-12-07T13:44:16;5.60;99.90
59855;DHT22;45732;52.850;6.896;2022-12-07T13:49:30;5.50;99.90
59855;DHT22;45732;52.850;6.896;2022-12-07T13:52:17;5.50;99.90
59855;DHT22;45732;52.850;6.896;2022-12-07T13:57:21;5.30;99.90
59855;DHT22;45732;52.850;6.896;2022-12-07T13:59:48;5.20;99.90
59855;DHT22;45732;52.850;6.896;2022-12-07T14:02:26;5.20;99.90
59855;DHT22;45732;52.850;6.896;2022-12-07T14:05:09;5.20;99.90
59855;DHT22;45732;52.850;6.896;2022-12-07T14:07:54;5.20;99.90
59855;DHT22;45732;52.850;6.896;2022-12-07T14:13:03;5.10;99.90
59855;DHT22;45732;52.850;6.896;2022-12-07T14:15:43;5.10;99.90
59855;DHT22;45732;52.850;6.896;2022-12-07T14:18:30;5.10;99.90
59855;DHT22;45732;52.850;6.896;2022-12-07T14:21:15;5.10;99.90
59855;DHT22;45732;52.850;6.896;2022-12-07T14:23:41;5.10;99.90
59855;DHT22;45732;52.850;6.896;2022-12-07T14:26:20;5.10;99.90
59855;DHT22;45732;52.850;6.896;2022-12-07T14:28:47;5.10;99.90
59855;DHT22;45732;52.850;6.896;2022-12-07T14:31:14;5.00;99.90
59855;DHT22;45732;52.850;6.896;2022-12-07T14:33:40;5.10;99.90
59855;DHT22;45732;52.850;6.896;2022-12-07T14:36:09;5.00;99.90
59855;DHT22;45732;52.850;6.896;2022-12-07T14:38:36;5.00;99.90
59855;DHT22;45732;52.850;6.896;2022-12-07T14:41:01;5.00;99.90
59855;DHT22;45732;52.850;6.896;2022-12-07T14:43:46;5.00;99.90
59855;DHT22;45732;52.850;6.896;2022-12-07T14:46:12;5.00;99.90
59855;DHT22;45732;52.850;6.896;2022-12-07T14:48:37;5.00;99.90
59855;DHT22;45732;52.850;6.896;2022-12-07T14:51:04;5.00;99.90
59855;DHT22;45732;52.850;6.896;2022-12-07T14:53:42;5.00;99.90
59855;DHT22;45732;52.850;6.896;2022-12-07T14:56:08;5.00;99.90
59855;DHT22;45732;52.850;6.896;2022-12-07T14:58:34;5.00;99.90
59855;DHT22;45732;52.850;6.896;2022-12-07T15:01:00;5.00;99.90
59855;DHT22;45732;52.850;6.896;2022-12-07T15:03:26;5.00;99.90
59855;DHT22;45732;52.850;6.896;2022-12-07T15:05:52;5.00;99.90
59855;DHT22;45732;52.850;6.896;2022-12-07T15:08:17;4.90;99.90
59855;DHT22;45732;52.850;6.896;2022-12-07T15:10:43;4.90;99.90
59855;DHT22;45732;52.850;6.896;2022-12-07T15:13:09;4.80;99.90
59855;DHT22;45732;52.850;6.896;2022-12-07T15:15:54;4.80;99.90
59855;DHT22;45732;52.850;6.896;2022-12-07T15:18:22;4.80;99.90
59855;DHT22;45732;52.850;6.896;2022-12-07T15:20:48;4.70;99.90
59855;DHT22;45732;52.850;6.896;2022-12-07T15:23:14;4.70;99.90
59855;DHT22;45732;52.850;6.896;2022-12-07T15:25:41;4.70;99.90
59855;DHT22;45732;52.850;6.896;2022-12-07T15:28:07;4.70;99.90
59855;DHT22;45732;52.850;6.896;2022-12-07T15:30:33;4.70;99.90
59855;DHT22;45732;52.850;6.896;2022-12-07T15:32:58;4.70;99.90
59855;DHT22;45732;52.850;6.896;2022-12-07T15:35:24;4.70;99.90
59855;DHT22;45732;52.850;6.896;2022-12-07T15:37:50;4.70;99.90
59855;DHT22;45732;52.850;6.896;2022-12-07T15:40:16;4.70;99.90
59855;DHT22;45732;52.850;6.896;2022-12-07T15:42:41;4.70;99.90
59855;DHT22;45732;52.850;6.896;2022-12-07T15:45:08;4.70;99.90
59855;DHT22;45732;52.850;6.896;2022-12-07T15:47:36;4.70;99.90
59855;DHT22;45732;52.850;6.896;2022-12-07T15:50:04;4.70;99.90
59855;DHT22;45732;52.850;6.896;2022-12-07T15:52:30;4.70;99.90
59855;DHT22;45732;52.850;6.896;2022-12-07T15:54:56;4.70;99.90
59855;DHT22;45732;52.850;6.896;2022-12-07T15:57:22;4.70;99.90
59855;DHT22;45732;52.850;6.896;2022-12-07T15:59:47;4.60;99.90
59855;DHT22;45732;52.850;6.896;2022-12-07T16:02:13;4.70;99.90
59855;DHT22;45732;52.850;6.896;2022-12-07T16:04:39;4.60;99.90
59855;DHT22;45732;52.850;6.896;2022-12-07T16:07:05;4.60;99.90
59855;DHT22;45732;52.850;6.896;2022-12-07T16:09:31;4.60;99.90
59855;DHT22;45732;52.850;6.896;2022-12-07T16:11:57;4.60;99.90
59855;DHT22;45732;52.850;6.896;2022-12-07T16:14:22;4.60;99.90
59855;DHT22;45732;52.850;6.896;2022-12-07T16:16:48;4.60;99.90
59855;DHT22;45732;52.850;6.896;2022-12-07T16:19:14;4.50;99.90
59855;DHT22;45732;52.850;6.896;2022-12-07T16:21:40;4.50;99.90
59855;DHT22;45732;52.850;6.896;2022-12-07T16:24:07;4.50;99.90
59855;DHT22;45732;52.850;6.896;2022-12-07T16:26:33;4.50;99.90
59855;DHT22;45732;52.850;6.896;2022-12-07T16:28:58;4.50;99.90
59855;DHT22;45732;52.850;6.896;2022-12-07T16:31:27;4.40;99.90
59855;DHT22;45732;52.850;6.896;2022-12-07T16:33:55;4.50;99.90
59855;DHT22;45732;52.850;6.896;2022-12-07T16:36:22;4.40;99.90
59855;DHT22;45732;52.850;6.896;2022-12-07T16:38:49;4.50;99.90
59855;DHT22;45732;52.850;6.896;2022-12-07T16:41:15;4.40;99.90
59855;DHT22;45732;52.850;6.896;2022-12-07T16:43:41;4.40;99.90
59855;DHT22;45732;52.850;6.896;2022-12-07T16:46:07;4.40;99.90
59855;DHT22;45732;52.850;6.896;2022-12-07T16:48:37;4.40;99.90
59855;DHT22;45732;52.850;6.896;2022-12-07T16:51:08;4.40;99.90
59855;DHT22;45732;52.850;6.896;2022-12-07T16:53:35;4.40;99.90
59855;DHT22;45732;52.850;6.896;2022-12-07T16:56:02;4.30;99.90
59855;DHT22;45732;52.850;6.896;2022-12-07T16:58:28;4.30;99.90
59855;DHT22;45732;52.850;6.896;2022-12-07T17:00:53;4.30;99.90
59855;DHT22;45732;52.850;6.896;2022-12-07T17:03:19;4.40;99.90
59855;DHT22;45732;52.850;6.896;2022-12-07T17:05:46;4.40;99.90
59855;DHT22;45732;52.850;6.896;2022-12-07T17:08:13;4.40;99.90
59855;DHT22;45732;52.850;6.896;2022-12-07T17:10:41;4.40;99.90
59855;DHT22;45732;52.850;6.896;2022-12-07T17:13:08;4.40;99.90
59855;DHT22;45732;52.850;6.896;2022-12-07T17:15:58;4.40;99.90
59855;DHT22;45732;52.850;6.896;2022-12-07T17:18:27;4.40;99.90
59855;DHT22;45732;52.850;6.896;2022-12-07T17:20:53;4.40;99.90
59855;DHT22;45732;52.850;6.896;2022-12-07T17:23:19;4.40;99.90
59855;DHT22;45732;52.850;6.896;2022-12-07T17:25:45;4.40;99.90
59855;DHT22;45732;52.850;6.896;2022-12-07T17:28:11;4.40;99.90
59855;DHT22;45732;52.850;6.896;2022-12-07T17:30:38;4.40;99.90
59855;DHT22;45732;52.850;6.896;2022-12-07T17:33:03;4.30;99.90
59855;DHT22;45732;52.850;6.896;2022-12-07T17:35:29;4.40;99.90
59855;DHT22;45732;52.850;6.896;2022-12-07T17:37:55;4.40;99.90
59855;DHT22;45732;52.850;6.896;2022-12-07T17:40:21;4.30;99.90
59855;DHT22;45732;52.850;6.896;2022-12-07T17:42:47;4.30;99.90
59855;DHT22;45732;52.850;6.896;2022-12-07T17:45:16;4.30;99.90
59855;DHT22;45732;52.850;6.896;2022-12-07T17:47:42;4.30;99.90
59855;DHT22;45732;52.850;6.896;2022-12-07T17:50:08;4.30;99.90
59855;DHT22;45732;52.850;6.896;2022-12-07T17:52:38;4.30;99.90
59855;DHT22;45732;52.850;6.896;2022-12-07T17:55:23;4.30;99.90
59855;DHT22;45732;52.850;6.896;2022-12-07T17:57:49;4.30;99.90
59855;DHT22;45732;52.850;6.896;2022-12-07T18:00:17;4.40;99.90
59855;DHT22;45732;52.850;6.896;2022-12-07T18:02:42;4.30;99.90
59855;DHT22;45732;52.850;6.896;2022-12-07T18:05:08;4.30;99.90
59855;DHT22;45732;52.850;6.896;2022-12-07T18:07:35;4.30;99.90